createdAt,value
2023-05-05T00:00:48.201Z,3
2023-05-05T00:01:48.229Z,3
2023-05-05T00:02:48.280Z,3
2023-05-05T00:03:48.286Z,3
2023-05-05T00:04:48.236Z,3
2023-05-05T00:05:48.214Z,3
2023-05-05T00:06:48.201Z,3
2023-05-05T00:07:48.189Z,3
2023-05-05T00:08:48.198Z,3
2023-05-05T00:09:48.196Z,3
2023-05-05T00:10:48.277Z,3
2023-05-05T00:12:48.252Z,3
2023-05-05T00:13:48.214Z,3
2023-05-05T00:14:48.207Z,3
2023-05-05T00:15:48.226Z,3
2023-05-05T00:16:48.232Z,3
2023-05-05T00:17:48.191Z,3
2023-05-05T00:18:48.221Z,3
2023-05-05T00:19:48.200Z,3
2023-05-05T00:20:48.238Z,3
2023-05-05T00:21:48.200Z,3
2023-05-05T00:22:48.201Z,3
2023-05-05T00:23:48.215Z,3
2023-05-05T00:24:48.212Z,3
2023-05-05T00:25:48.240Z,4
2023-05-05T00:26:48.203Z,4
2023-05-05T00:27:48.194Z,3
2023-05-05T00:28:48.222Z,3
2023-05-05T00:29:48.200Z,4
2023-05-05T00:30:48.233Z,3
2023-05-05T00:31:48.205Z,4
2023-05-05T00:32:48.318Z,3
2023-05-05T00:33:48.204Z,4
2023-05-05T00:34:48.202Z,4
2023-05-05T00:35:48.235Z,3
2023-05-05T00:36:48.198Z,4
2023-05-05T00:37:48.200Z,4
2023-05-05T00:38:48.205Z,4
2023-05-05T00:39:48.203Z,4
2023-05-05T00:40:48.211Z,4
2023-05-05T00:41:48.225Z,4
2023-05-05T00:42:48.231Z,4
2023-05-05T00:43:48.220Z,4
2023-05-05T00:44:48.236Z,4
2023-05-05T00:45:48.260Z,4
2023-05-05T00:46:48.277Z,4
2023-05-05T00:47:48.278Z,4
2023-05-05T00:48:48.230Z,4
2023-05-05T00:49:48.210Z,4
2023-05-05T00:50:48.223Z,4
2023-05-05T00:51:48.217Z,4
2023-05-05T00:52:48.234Z,4
2023-05-05T00:53:48.222Z,4
2023-05-05T00:54:48.219Z,4
2023-05-05T00:55:48.212Z,4
2023-05-05T00:56:48.216Z,4
2023-05-05T00:57:48.208Z,4
2023-05-05T00:58:48.229Z,4
2023-05-05T00:59:48.211Z,3
2023-05-05T01:00:48.239Z,4
2023-05-05T01:01:48.246Z,4
2023-05-05T01:02:48.241Z,4
2023-05-05T01:03:48.289Z,4
2023-05-05T01:04:48.196Z,4
2023-05-05T01:05:48.218Z,4
2023-05-05T01:06:48.223Z,4
2023-05-05T01:07:48.228Z,4
2023-05-05T01:08:48.231Z,4
2023-05-05T01:09:48.232Z,4
2023-05-05T01:10:48.224Z,4
2023-05-05T01:11:48.221Z,4
2023-05-05T01:12:48.282Z,4
2023-05-05T01:13:48.239Z,4
2023-05-05T01:14:48.213Z,4
2023-05-05T01:15:48.297Z,4
2023-05-05T01:16:48.228Z,4
2023-05-05T01:17:48.243Z,4
2023-05-05T01:18:48.204Z,4
2023-05-05T01:19:48.271Z,4
2023-05-05T01:20:48.208Z,3
2023-05-05T01:21:48.210Z,4
2023-05-05T01:22:48.218Z,4
2023-05-05T01:23:48.216Z,4
2023-05-05T01:24:48.239Z,4
2023-05-05T01:25:48.217Z,4
2023-05-05T01:26:48.226Z,4
2023-05-05T01:27:48.236Z,4
2023-05-05T01:28:48.215Z,4
2023-05-05T01:29:48.209Z,4
2023-05-05T01:30:48.225Z,4
2023-05-05T01:31:48.263Z,4
2023-05-05T01:32:48.223Z,4
2023-05-05T01:33:48.209Z,4
2023-05-05T01:34:48.239Z,4
2023-05-05T01:35:48.224Z,4
2023-05-05T01:36:48.231Z,4
2023-05-05T01:37:48.229Z,4
2023-05-05T01:38:48.223Z,4
2023-05-05T01:39:48.228Z,5
2023-05-05T01:40:48.249Z,4
2023-05-05T01:41:48.229Z,4
2023-05-05T01:43:48.253Z,4
2023-05-05T01:44:48.234Z,4
2023-05-05T01:45:48.230Z,5
2023-05-05T01:46:48.211Z,4
2023-05-05T01:47:48.386Z,4
2023-05-05T01:48:48.341Z,4
2023-05-05T01:49:48.225Z,4
2023-05-05T01:50:48.495Z,4
2023-05-05T01:51:48.222Z,4
2023-05-05T01:52:48.214Z,5
2023-05-05T01:53:48.229Z,4
2023-05-05T01:54:48.212Z,4
2023-05-05T01:55:48.220Z,5
2023-05-05T01:56:48.226Z,5
2023-05-05T01:57:48.214Z,5
2023-05-05T01:58:48.246Z,4
2023-05-05T02:00:48.210Z,5
2023-05-05T02:01:48.254Z,5
2023-05-05T02:02:48.285Z,5
2023-05-05T02:03:48.227Z,5
2023-05-05T02:04:48.219Z,5
2023-05-05T02:05:48.252Z,5
2023-05-05T02:06:48.215Z,5
2023-05-05T02:07:48.219Z,5
2023-05-05T02:08:48.208Z,5
2023-05-05T02:09:48.230Z,5
2023-05-05T02:10:48.268Z,5
2023-05-05T02:11:48.225Z,5
2023-05-05T02:12:48.250Z,5
2023-05-05T02:13:48.338Z,5
2023-05-05T02:14:48.241Z,4
2023-05-05T02:15:48.312Z,5
2023-05-05T02:16:48.244Z,5
2023-05-05T02:17:48.267Z,5
2023-05-05T02:18:48.229Z,5
2023-05-05T02:20:48.221Z,5
2023-05-05T02:21:48.228Z,5
2023-05-05T02:22:48.280Z,5
2023-05-05T02:23:48.223Z,5
2023-05-05T02:24:48.231Z,5
2023-05-05T02:25:48.281Z,5
2023-05-05T02:26:48.236Z,5
2023-05-05T02:27:48.221Z,5
2023-05-05T02:28:48.249Z,5
2023-05-05T02:29:48.229Z,5
2023-05-05T02:30:48.234Z,5
2023-05-05T02:31:48.270Z,5
2023-05-05T02:32:48.339Z,5
2023-05-05T02:33:48.240Z,5
2023-05-05T02:34:48.237Z,5
2023-05-05T02:35:48.246Z,5
2023-05-05T02:36:48.243Z,5
2023-05-05T02:37:48.255Z,5
2023-05-05T02:38:48.239Z,5
2023-05-05T02:39:48.229Z,5
2023-05-05T02:40:48.238Z,5
2023-05-05T02:42:48.229Z,5
2023-05-05T02:43:48.260Z,5
2023-05-05T02:44:48.273Z,5
2023-05-05T02:45:48.248Z,5
2023-05-05T02:46:48.287Z,5
2023-05-05T02:47:48.350Z,5
2023-05-05T02:48:48.225Z,5
2023-05-05T02:49:48.237Z,5
2023-05-05T02:50:48.238Z,5
2023-05-05T02:51:48.245Z,3
2023-05-05T02:52:48.237Z,5
2023-05-05T02:53:48.223Z,5
2023-05-05T02:54:48.239Z,5
2023-05-05T02:55:48.255Z,5
2023-05-05T02:56:48.286Z,5
2023-05-05T02:57:48.238Z,2
2023-05-05T02:58:48.256Z,5
2023-05-05T02:59:48.233Z,5
2023-05-05T03:00:48.243Z,5
2023-05-05T03:01:48.235Z,5
2023-05-05T03:02:48.270Z,3
2023-05-05T03:03:48.498Z,5
2023-05-05T03:04:48.217Z,5
2023-05-05T03:05:48.243Z,5
2023-05-05T03:06:48.258Z,5
2023-05-05T03:07:48.227Z,5
2023-05-05T03:08:48.224Z,6
2023-05-05T03:09:48.363Z,6
2023-05-05T03:10:48.245Z,2
2023-05-05T03:11:48.264Z,5
2023-05-05T03:12:48.310Z,5
2023-05-05T03:13:48.269Z,5
2023-05-05T03:14:48.236Z,5
2023-05-05T03:15:48.244Z,5
2023-05-05T03:16:48.264Z,5
2023-05-05T03:17:48.301Z,5
2023-05-05T03:18:48.312Z,5
2023-05-05T03:19:48.245Z,5
2023-05-05T03:20:48.247Z,2
2023-05-05T03:22:48.246Z,5
2023-05-05T03:23:48.266Z,6
2023-05-05T03:24:48.233Z,6
2023-05-05T03:25:48.230Z,2
2023-05-05T03:26:48.231Z,5
2023-05-05T03:27:48.269Z,5
2023-05-05T03:28:48.254Z,6
2023-05-05T03:29:48.249Z,6
2023-05-05T03:30:48.255Z,5
2023-05-05T03:31:48.240Z,3
2023-05-05T03:32:48.288Z,6
2023-05-05T03:33:48.229Z,6
2023-05-05T03:34:48.250Z,6
2023-05-05T03:35:48.245Z,6
2023-05-05T03:36:48.267Z,3
2023-05-05T03:37:48.240Z,6
2023-05-05T03:38:48.236Z,6
2023-05-05T03:39:48.230Z,6
2023-05-05T03:40:48.262Z,3
2023-05-05T03:41:48.257Z,5
2023-05-05T03:42:48.229Z,5
2023-05-05T03:43:48.249Z,6
2023-05-05T03:44:48.247Z,3
2023-05-05T03:45:48.286Z,5
2023-05-05T03:46:48.238Z,5
2023-05-05T03:47:48.307Z,6
2023-05-05T03:48:48.238Z,3
2023-05-05T03:49:48.230Z,5
2023-05-05T03:50:48.226Z,5
2023-05-05T03:51:48.293Z,3
2023-05-05T03:52:48.397Z,5
2023-05-05T03:53:48.269Z,6
2023-05-05T03:54:48.322Z,6
2023-05-05T03:55:48.398Z,6
2023-05-05T03:56:48.231Z,3
2023-05-05T03:57:48.238Z,6
2023-05-05T03:58:48.273Z,6
2023-05-05T03:59:48.270Z,6
2023-05-05T04:00:48.253Z,3
2023-05-05T04:01:48.230Z,6
2023-05-05T04:02:48.365Z,6
2023-05-05T04:03:48.291Z,6
2023-05-05T04:04:48.249Z,3
2023-05-05T04:05:48.234Z,6
2023-05-05T04:06:48.242Z,6
2023-05-05T04:07:48.253Z,6
2023-05-05T04:08:48.241Z,3
2023-05-05T04:09:48.233Z,6
2023-05-05T04:10:48.274Z,6
2023-05-05T04:12:48.300Z,6
2023-05-05T04:13:48.268Z,6
2023-05-05T04:14:48.277Z,6
2023-05-05T04:15:48.307Z,3
2023-05-05T04:16:48.256Z,6
2023-05-05T04:17:48.248Z,6
2023-05-05T04:18:48.235Z,4
2023-05-05T04:19:48.331Z,6
2023-05-05T04:20:48.260Z,6
2023-05-05T04:22:48.418Z,3
2023-05-05T04:23:48.276Z,5
2023-05-05T04:24:48.253Z,6
2023-05-05T04:25:48.254Z,6
2023-05-05T04:26:48.275Z,3
2023-05-05T04:27:48.257Z,6
2023-05-05T04:28:48.287Z,7
2023-05-05T04:29:48.252Z,6
2023-05-05T04:30:48.262Z,3
2023-05-05T04:31:48.306Z,7
2023-05-05T04:32:48.279Z,6
2023-05-05T04:34:48.253Z,3
2023-05-05T04:35:48.239Z,6
2023-05-05T04:36:48.244Z,6
2023-05-05T04:37:48.247Z,4
2023-05-05T04:38:48.283Z,6
2023-05-05T04:39:48.231Z,7
2023-05-05T04:40:48.240Z,6
2023-05-05T04:41:48.283Z,3
2023-05-05T04:42:48.252Z,6
2023-05-05T04:43:48.281Z,6
2023-05-05T04:44:48.247Z,6
2023-05-05T04:45:48.241Z,3
2023-05-05T04:46:48.278Z,6
2023-05-05T04:47:48.292Z,6
2023-05-05T04:48:48.256Z,6
2023-05-05T04:49:48.294Z,3
2023-05-05T04:50:48.249Z,6
2023-05-05T04:51:48.248Z,7
2023-05-05T04:52:48.617Z,6
2023-05-05T04:53:48.290Z,4
2023-05-05T04:54:48.246Z,7
2023-05-05T04:55:48.301Z,6
2023-05-05T04:56:48.268Z,7
2023-05-05T04:57:48.238Z,7
2023-05-05T04:58:48.347Z,6
2023-05-05T04:59:48.301Z,6
2023-05-05T05:00:48.263Z,6
2023-05-05T05:01:48.349Z,3
2023-05-05T05:02:48.318Z,6
2023-05-05T05:03:48.380Z,6
2023-05-05T05:04:48.251Z,6
2023-05-05T05:05:48.273Z,6
2023-05-05T05:06:48.285Z,5
2023-05-05T05:07:48.255Z,3
2023-05-05T05:08:48.275Z,6
2023-05-05T05:09:48.239Z,5
2023-05-05T05:10:48.283Z,6
2023-05-05T05:12:48.284Z,6
2023-05-05T05:13:48.286Z,5
2023-05-05T05:14:48.255Z,6
2023-05-05T05:15:48.267Z,6
2023-05-05T05:16:48.566Z,6
2023-05-05T05:17:48.288Z,6
2023-05-05T05:18:48.263Z,6
2023-05-05T05:19:48.246Z,6
2023-05-05T05:20:48.278Z,6
2023-05-05T05:21:48.254Z,6
2023-05-05T05:22:48.262Z,6
2023-05-05T05:23:48.251Z,6
2023-05-05T05:24:48.299Z,5
2023-05-05T05:25:48.256Z,6
2023-05-05T05:26:48.245Z,6
2023-05-05T05:27:55.271Z,6
2023-05-05T05:28:48.276Z,6
2023-05-05T05:29:48.251Z,5
2023-05-05T05:30:48.259Z,5
2023-05-05T05:31:48.310Z,6
2023-05-05T05:32:48.268Z,6
2023-05-05T05:34:48.260Z,5
2023-05-05T05:35:48.261Z,5
2023-05-05T05:36:48.279Z,5
2023-05-05T05:37:48.261Z,5
2023-05-05T05:38:48.276Z,5
2023-05-05T05:39:48.304Z,5
2023-05-05T05:40:48.258Z,5
2023-05-05T05:41:48.267Z,5
2023-05-05T05:42:48.283Z,5
2023-05-05T05:43:48.276Z,5
2023-05-05T05:44:48.246Z,5
2023-05-05T05:45:48.306Z,5
2023-05-05T05:46:48.303Z,5
2023-05-05T05:47:48.286Z,5
2023-05-05T05:48:48.257Z,5
2023-05-05T05:49:48.256Z,5
2023-05-05T05:50:48.264Z,6
2023-05-05T05:51:48.272Z,5
2023-05-05T05:52:48.266Z,5
2023-05-05T05:53:48.246Z,5
2023-05-05T05:54:48.267Z,5
2023-05-05T05:55:48.264Z,5
2023-05-05T05:56:48.269Z,5
2023-05-05T05:57:48.257Z,5
2023-05-05T05:58:48.290Z,6
2023-05-05T05:59:48.269Z,5
2023-05-05T06:00:48.295Z,6
2023-05-05T06:01:48.266Z,5
2023-05-05T06:02:48.360Z,5
2023-05-05T06:03:48.334Z,5
2023-05-05T06:04:48.269Z,5
2023-05-05T06:05:48.265Z,5
2023-05-05T06:06:48.243Z,5
2023-05-05T06:07:48.258Z,5
2023-05-05T06:08:48.262Z,5
2023-05-05T06:09:48.256Z,5
2023-05-05T06:10:48.289Z,6
2023-05-05T06:11:48.280Z,5
2023-05-05T06:12:48.275Z,5
2023-05-05T06:13:48.260Z,5
2023-05-05T06:14:48.258Z,5
2023-05-05T06:16:48.275Z,5
2023-05-05T06:17:48.284Z,5
2023-05-05T06:18:48.261Z,5
2023-05-05T06:19:48.265Z,5
2023-05-05T06:20:48.274Z,6
2023-05-05T06:21:48.258Z,5
2023-05-05T06:22:48.273Z,5
2023-05-05T06:23:48.274Z,5
2023-05-05T06:24:48.262Z,6
2023-05-05T06:25:48.257Z,5
2023-05-05T06:26:48.292Z,5
2023-05-05T06:27:48.294Z,5
2023-05-05T06:28:48.268Z,5
2023-05-05T06:29:48.286Z,5
2023-05-05T06:30:48.275Z,5
2023-05-05T06:31:48.286Z,5
2023-05-05T06:32:48.273Z,5
2023-05-05T06:33:48.268Z,5
2023-05-05T06:34:48.317Z,5
2023-05-05T06:35:48.268Z,5
2023-05-05T06:37:48.291Z,5
2023-05-05T06:38:48.272Z,5
2023-05-05T06:39:48.282Z,5
2023-05-05T06:40:48.268Z,5
2023-05-05T06:41:48.269Z,5
2023-05-05T06:42:48.268Z,5
2023-05-05T06:43:48.287Z,5
2023-05-05T06:44:48.286Z,5
2023-05-05T06:45:48.273Z,5
2023-05-05T06:46:48.290Z,5
2023-05-05T06:47:48.328Z,5
2023-05-05T06:48:48.320Z,5
2023-05-05T06:49:48.278Z,5
2023-05-05T06:50:48.264Z,5
2023-05-05T06:51:48.264Z,5
2023-05-05T06:52:48.259Z,5
2023-05-05T06:53:48.279Z,5
2023-05-05T06:54:48.318Z,6
2023-05-05T06:55:48.286Z,6
2023-05-05T06:56:48.277Z,5
2023-05-05T06:57:48.285Z,5
2023-05-05T06:58:48.294Z,6
2023-05-05T06:59:48.349Z,5
2023-05-05T07:00:48.321Z,5
2023-05-05T07:02:48.302Z,6
2023-05-05T07:03:48.320Z,6
2023-05-05T07:04:48.299Z,5
2023-05-05T07:05:48.333Z,6
2023-05-05T07:06:48.282Z,6
2023-05-05T07:07:48.294Z,6
2023-05-05T07:08:48.274Z,5
2023-05-05T07:09:48.280Z,6
2023-05-05T07:10:48.316Z,6
2023-05-05T07:11:48.296Z,6
2023-05-05T07:12:48.335Z,6
2023-05-05T07:13:48.286Z,6
2023-05-05T07:14:48.291Z,6
2023-05-05T07:15:48.303Z,6
2023-05-05T07:16:48.285Z,6
2023-05-05T07:17:48.359Z,6
2023-05-05T07:18:48.283Z,6
2023-05-05T07:19:48.308Z,6
2023-05-05T07:20:48.286Z,6
2023-05-05T07:21:48.285Z,6
2023-05-05T07:22:48.303Z,6
2023-05-05T07:23:48.315Z,6
2023-05-05T07:24:49.754Z,6
2023-05-05T07:25:48.278Z,6
2023-05-05T07:26:48.269Z,6
2023-05-05T07:27:48.303Z,7
2023-05-05T07:28:48.342Z,7
2023-05-05T07:29:48.278Z,8
2023-05-05T07:30:48.306Z,7
2023-05-05T07:31:48.355Z,8
2023-05-05T07:32:48.347Z,8
2023-05-05T07:33:48.304Z,8
2023-05-05T07:34:48.531Z,9
2023-05-05T07:35:48.289Z,7
2023-05-05T07:37:48.286Z,8
2023-05-05T07:38:48.311Z,8
2023-05-05T07:40:48.294Z,8
2023-05-05T07:41:48.299Z,9
2023-05-05T07:42:48.294Z,8
2023-05-05T07:43:48.449Z,8
2023-05-05T07:44:48.299Z,8
2023-05-05T07:45:48.363Z,7
2023-05-05T07:46:48.296Z,8
2023-05-05T07:47:48.309Z,7
2023-05-05T07:48:48.302Z,8
2023-05-05T07:49:48.290Z,8
2023-05-05T07:50:48.283Z,9
2023-05-05T07:51:48.330Z,8
2023-05-05T07:52:53.916Z,8
2023-05-05T07:53:48.278Z,9
2023-05-05T07:54:48.313Z,9
2023-05-05T07:55:48.399Z,11
2023-05-05T07:56:48.303Z,10
2023-05-05T07:58:48.290Z,9
2023-05-05T07:59:48.301Z,10
2023-05-05T08:00:48.306Z,9
2023-05-05T08:01:48.341Z,9
2023-05-05T08:02:48.442Z,9
2023-05-05T08:03:48.439Z,9
2023-05-05T08:04:48.395Z,10
2023-05-05T08:05:50.531Z,9
2023-05-05T08:06:48.309Z,10
2023-05-05T08:07:48.352Z,10
2023-05-05T08:09:48.298Z,9
2023-05-05T08:10:48.290Z,9
2023-05-05T08:12:48.345Z,8
2023-05-05T08:14:48.293Z,9
2023-05-05T08:15:48.328Z,9
2023-05-05T08:16:48.299Z,9
2023-05-05T08:17:48.392Z,9
2023-05-05T08:18:48.286Z,9
2023-05-05T08:19:48.304Z,8
2023-05-05T08:20:48.317Z,9
2023-05-05T08:22:48.362Z,9
2023-05-05T08:23:48.302Z,9
2023-05-05T08:24:48.308Z,10
2023-05-05T08:25:48.296Z,8
2023-05-05T08:26:48.330Z,9
2023-05-05T08:27:48.307Z,8
2023-05-05T08:28:48.328Z,7
2023-05-05T08:29:48.314Z,6
2023-05-05T08:30:48.323Z,7
2023-05-05T08:31:48.380Z,8
2023-05-05T08:32:48.329Z,8
2023-05-05T08:34:48.303Z,8
2023-05-05T08:35:48.337Z,8
2023-05-05T08:36:48.379Z,7
2023-05-05T08:37:48.310Z,7
2023-05-05T08:38:48.334Z,7
2023-05-05T08:39:48.308Z,7
2023-05-05T08:40:48.338Z,7
2023-05-05T08:41:48.366Z,6
2023-05-05T08:42:48.339Z,6
2023-05-05T08:43:48.335Z,7
2023-05-05T08:44:48.304Z,7
2023-05-05T08:45:48.316Z,6
2023-05-05T08:46:48.441Z,7
2023-05-05T08:47:48.413Z,7
2023-05-05T08:48:48.364Z,7
2023-05-05T08:49:48.328Z,7
2023-05-05T08:50:48.310Z,7
2023-05-05T08:51:48.317Z,6
2023-05-05T08:52:49.836Z,6
2023-05-05T08:53:48.362Z,6
2023-05-05T08:54:48.302Z,5
2023-05-05T08:55:48.322Z,6
2023-05-05T08:56:48.323Z,6
2023-05-05T08:57:48.340Z,6
2023-05-05T08:58:48.344Z,5
2023-05-05T08:59:48.320Z,6
2023-05-05T09:00:48.429Z,6
2023-05-05T09:01:48.319Z,6
2023-05-05T09:02:48.480Z,6
2023-05-05T09:03:48.353Z,6
2023-05-05T09:04:48.324Z,7
2023-05-05T09:05:48.336Z,7
2023-05-05T09:06:48.318Z,7
2023-05-05T09:07:48.324Z,7
2023-05-05T09:08:48.334Z,6
2023-05-05T09:10:48.380Z,6
2023-05-05T09:11:48.359Z,5
2023-05-05T09:12:48.358Z,5
2023-05-05T09:13:48.367Z,6
2023-05-05T09:14:48.317Z,6
2023-05-05T09:15:48.411Z,6
2023-05-05T09:16:48.384Z,6
2023-05-05T09:17:48.580Z,6
2023-05-05T09:18:48.319Z,5
2023-05-05T09:19:48.336Z,6
2023-05-05T09:20:48.305Z,6
2023-05-05T09:21:48.353Z,6
2023-05-05T09:22:48.355Z,5
2023-05-05T09:23:48.355Z,5
2023-05-05T09:24:48.317Z,6
2023-05-05T09:25:48.361Z,6
2023-05-05T09:26:48.346Z,7
2023-05-05T09:27:48.307Z,6
2023-05-05T09:28:48.338Z,6
2023-05-05T09:29:48.315Z,6
2023-05-05T09:30:48.333Z,6
2023-05-05T09:31:48.323Z,5
2023-05-05T09:32:48.391Z,6
2023-05-05T09:33:48.336Z,6
2023-05-05T09:34:48.322Z,6
2023-05-05T09:35:48.324Z,6
2023-05-05T09:36:48.365Z,6
2023-05-05T09:37:48.363Z,6
2023-05-05T09:38:48.310Z,5
2023-05-05T09:39:48.325Z,6
2023-05-05T09:40:48.344Z,6
2023-05-05T09:42:48.328Z,6
2023-05-05T09:43:48.334Z,6
2023-05-05T09:44:48.372Z,5
2023-05-05T09:45:48.315Z,5
2023-05-05T09:46:48.364Z,6
2023-05-05T09:53:48.355Z,5
2023-05-05T09:54:48.313Z,5
2023-05-05T09:55:48.349Z,5
2023-05-05T09:56:48.336Z,6
2023-05-05T09:57:48.446Z,5
2023-05-05T09:58:48.455Z,6
2023-05-05T09:59:48.320Z,5
2023-05-05T10:00:48.397Z,6
2023-05-05T10:01:48.358Z,6
2023-05-05T10:02:48.369Z,5
2023-05-05T10:03:48.332Z,5
2023-05-05T10:04:48.350Z,5
2023-05-05T10:05:48.340Z,5
2023-05-05T10:06:48.334Z,5
2023-05-05T10:07:48.349Z,5
2023-05-05T10:08:48.312Z,5
2023-05-05T10:09:48.310Z,5
2023-05-05T10:10:48.340Z,5
2023-05-05T10:11:48.341Z,4
2023-05-05T10:12:48.350Z,4
2023-05-05T10:13:48.329Z,4
2023-05-05T10:14:48.351Z,4
2023-05-05T10:15:48.389Z,4
2023-05-05T10:16:48.357Z,4
2023-05-05T10:18:02.758Z,3
2023-05-05T10:18:48.342Z,4
2023-05-05T10:19:48.333Z,4
2023-05-05T10:20:48.314Z,4
2023-05-05T10:21:48.342Z,4
2023-05-05T10:22:48.321Z,4
2023-05-05T10:23:48.335Z,4
2023-05-05T10:24:48.336Z,3
2023-05-05T10:25:48.355Z,3
2023-05-05T10:27:48.338Z,3
2023-05-05T10:28:48.359Z,3
2023-05-05T10:29:48.329Z,3
2023-05-05T10:30:48.331Z,3
2023-05-05T10:31:48.387Z,4
2023-05-05T10:33:00.495Z,4
2023-05-05T10:33:48.444Z,4
2023-05-05T10:34:48.363Z,3
2023-05-05T10:35:48.348Z,3
2023-05-05T10:36:48.330Z,3
2023-05-05T10:37:48.353Z,3
2023-05-05T10:38:48.327Z,3
2023-05-05T10:39:48.328Z,3
2023-05-05T10:40:48.345Z,3
2023-05-05T10:41:48.361Z,3
2023-05-05T10:42:48.333Z,3
2023-05-05T10:43:48.411Z,3
2023-05-05T10:44:48.385Z,3
2023-05-05T10:45:48.557Z,3
2023-05-05T10:46:48.494Z,3
2023-05-05T10:47:48.678Z,3
2023-05-05T10:48:48.446Z,3
2023-05-05T10:49:48.345Z,3
2023-05-05T10:50:48.375Z,3
2023-05-05T10:52:48.351Z,2
2023-05-05T10:53:48.366Z,2
2023-05-05T10:54:48.350Z,2
2023-05-05T10:55:48.353Z,2
2023-05-05T10:56:48.360Z,2
2023-05-05T10:57:48.381Z,3
2023-05-05T10:58:59.086Z,3
2023-05-05T10:59:48.335Z,3
2023-05-05T11:00:48.397Z,2
2023-05-05T11:01:48.357Z,2
2023-05-05T11:03:48.369Z,3
2023-05-05T11:04:48.351Z,4
2023-05-05T11:05:48.357Z,4
2023-05-05T11:07:48.354Z,4
2023-05-05T11:08:48.339Z,3
2023-05-05T11:09:48.374Z,3
2023-05-05T11:10:48.377Z,3
2023-05-05T11:11:48.372Z,3
2023-05-05T11:12:48.363Z,3
2023-05-05T11:13:48.350Z,3
2023-05-05T11:14:48.356Z,4
2023-05-05T11:15:48.379Z,3
2023-05-05T11:16:48.488Z,3
2023-05-05T11:17:48.467Z,3
2023-05-05T11:18:48.343Z,3
2023-05-05T11:19:48.486Z,3
2023-05-05T11:20:48.352Z,3
2023-05-05T11:21:48.368Z,3
2023-05-05T11:22:48.363Z,3
2023-05-05T11:23:48.368Z,3
2023-05-05T11:24:48.373Z,3
2023-05-05T11:25:48.359Z,3
2023-05-05T11:26:48.353Z,3
2023-05-05T11:27:48.369Z,3
2023-05-05T11:28:48.398Z,3
2023-05-05T11:29:50.260Z,4
2023-05-05T11:30:48.408Z,3
2023-05-05T11:31:48.361Z,3
2023-05-05T11:32:48.418Z,3
2023-05-05T11:33:48.385Z,3
2023-05-05T11:34:48.374Z,3
2023-05-05T11:35:48.366Z,3
2023-05-05T11:36:48.352Z,3
2023-05-05T11:37:48.384Z,3
2023-05-05T11:38:48.443Z,2
2023-05-05T11:40:48.379Z,3
2023-05-05T11:41:48.363Z,3
2023-05-05T11:42:48.382Z,2
2023-05-05T11:43:48.368Z,1
2023-05-05T11:44:48.365Z,1
2023-05-05T11:45:48.413Z,1
2023-05-05T11:46:48.373Z,1
2023-05-05T11:47:48.398Z,1
2023-05-05T11:48:48.367Z,1
2023-05-05T11:49:48.377Z,1
2023-05-05T11:50:48.411Z,1
2023-05-05T11:51:48.353Z,1
2023-05-05T11:52:48.364Z,1
2023-05-05T11:53:48.381Z,1
2023-05-05T11:54:48.397Z,1
2023-05-05T11:55:48.375Z,1
2023-05-05T11:56:48.368Z,1
2023-05-05T11:57:48.478Z,1
2023-05-05T11:58:48.365Z,1
2023-05-05T11:59:49.535Z,1
2023-05-05T12:00:48.373Z,1
2023-05-05T12:01:48.365Z,1
2023-05-05T12:02:48.435Z,1
2023-05-05T12:03:48.557Z,1
2023-05-05T12:04:48.398Z,1
2023-05-05T12:05:48.371Z,1
2023-05-05T12:06:48.375Z,2
2023-05-05T12:07:48.380Z,2
2023-05-05T12:08:48.364Z,2
2023-05-05T12:09:48.380Z,1
2023-05-05T12:10:48.376Z,1
2023-05-05T12:11:48.355Z,2
2023-05-05T12:12:48.446Z,1
2023-05-05T12:13:48.385Z,1
2023-05-05T12:14:48.361Z,1
2023-05-05T12:15:48.418Z,1
2023-05-05T12:16:48.493Z,1
2023-05-05T12:17:48.407Z,1
2023-05-05T12:18:48.362Z,1
2023-05-05T12:19:48.423Z,1
2023-05-05T12:20:48.406Z,1
2023-05-05T12:22:48.371Z,1
2023-05-05T12:23:48.370Z,1
2023-05-05T12:24:48.399Z,1
2023-05-05T12:25:48.373Z,1
2023-05-05T12:26:48.376Z,1
2023-05-05T12:27:48.383Z,1
2023-05-05T12:28:48.384Z,1
2023-05-05T12:29:48.365Z,1
2023-05-05T12:30:48.383Z,2
2023-05-05T12:31:48.422Z,1
2023-05-05T12:32:48.461Z,2
2023-05-05T12:33:48.376Z,2
2023-05-05T12:34:48.388Z,1
2023-05-05T12:35:48.377Z,1
2023-05-05T12:36:48.382Z,2
2023-05-05T12:37:48.374Z,1
2023-05-05T12:38:48.381Z,2
2023-05-05T12:40:48.394Z,2
2023-05-05T12:41:48.361Z,2
2023-05-05T12:42:48.399Z,2
2023-05-05T12:43:48.394Z,1
2023-05-05T12:44:48.369Z,2
2023-05-05T12:45:48.429Z,1
2023-05-05T12:46:48.389Z,1
2023-05-05T12:47:48.400Z,1
2023-05-05T12:48:48.650Z,1
2023-05-05T12:49:48.395Z,2
2023-05-05T12:50:48.395Z,2
2023-05-05T12:51:48.372Z,1
2023-05-05T12:52:48.386Z,1
2023-05-05T12:53:48.438Z,2
2023-05-05T12:55:48.373Z,1
2023-05-05T12:56:48.394Z,2
2023-05-05T12:57:48.384Z,2
2023-05-05T12:58:48.401Z,2
2023-05-05T13:00:48.414Z,1
2023-05-05T13:01:48.491Z,2
2023-05-05T13:02:48.455Z,1
2023-05-05T13:03:48.378Z,2
2023-05-05T13:04:48.383Z,2
2023-05-05T13:05:48.418Z,2
2023-05-05T13:06:48.420Z,2
2023-05-05T13:07:48.378Z,2
2023-05-05T13:08:48.373Z,2
2023-05-05T13:09:48.381Z,2
2023-05-05T13:10:48.392Z,2
2023-05-05T13:12:48.427Z,2
2023-05-05T13:13:48.411Z,2
2023-05-05T13:14:48.398Z,2
2023-05-05T13:15:48.434Z,2
2023-05-05T13:16:48.411Z,2
2023-05-05T13:17:48.484Z,2
2023-05-05T13:19:48.372Z,2
2023-05-05T13:20:48.438Z,2
2023-05-05T13:21:48.385Z,2
2023-05-05T13:22:48.417Z,2
2023-05-05T13:23:48.381Z,2
2023-05-05T13:24:52.303Z,2
2023-05-05T13:25:48.402Z,2
2023-05-05T13:26:48.398Z,2
2023-05-05T13:27:48.398Z,2
2023-05-05T13:28:48.402Z,2
2023-05-05T13:29:48.413Z,2
2023-05-05T13:31:48.404Z,2
2023-05-05T13:32:48.414Z,2
2023-05-05T13:33:48.384Z,2
2023-05-05T13:34:48.415Z,2
2023-05-05T13:35:48.386Z,2
2023-05-05T13:36:48.393Z,2
2023-05-05T13:37:48.390Z,2
2023-05-05T13:38:48.407Z,2
2023-05-05T13:39:48.426Z,2
2023-05-05T13:40:48.393Z,2
2023-05-05T13:41:48.408Z,2
2023-05-05T13:42:48.394Z,2
2023-05-05T13:43:48.421Z,2
2023-05-05T13:44:48.436Z,2
2023-05-05T13:45:48.399Z,2
2023-05-05T13:46:48.438Z,2
2023-05-05T13:47:48.425Z,2
2023-05-05T13:48:48.741Z,2
2023-05-05T13:49:48.416Z,2
2023-05-05T13:50:48.384Z,2
2023-05-05T13:51:48.380Z,2
2023-05-05T13:52:48.389Z,2
2023-05-05T13:53:48.415Z,2
2023-05-05T13:54:48.392Z,2
2023-05-05T13:55:48.378Z,2
2023-05-05T13:56:48.394Z,2
2023-05-05T13:57:48.390Z,2
2023-05-05T13:58:48.410Z,2
2023-05-05T13:59:48.381Z,2
2023-05-05T14:00:48.476Z,2
2023-05-05T14:01:48.508Z,2
2023-05-05T14:02:48.580Z,2
2023-05-05T14:03:48.455Z,2
2023-05-05T14:04:48.395Z,2
2023-05-05T14:05:48.415Z,2
2023-05-05T14:06:48.708Z,2
2023-05-05T14:07:48.753Z,2
2023-05-05T14:08:48.455Z,3
2023-05-05T14:09:48.481Z,3
2023-05-05T14:10:49.552Z,3
2023-05-05T14:11:48.425Z,3
2023-05-05T14:12:48.446Z,2
2023-05-05T14:13:48.424Z,2
2023-05-05T14:14:48.412Z,3
2023-05-05T14:15:48.418Z,2
2023-05-05T14:16:50.230Z,2
2023-05-05T14:17:59.257Z,2
2023-05-05T14:18:48.419Z,2
2023-05-05T14:19:48.416Z,3
2023-05-05T14:20:48.495Z,2
2023-05-05T14:21:48.394Z,2
2023-05-05T14:22:49.461Z,2
2023-05-05T14:23:48.430Z,2
2023-05-05T14:24:48.408Z,2
2023-05-05T14:25:48.419Z,2
2023-05-05T14:26:48.404Z,2
2023-05-05T14:27:48.417Z,2
2023-05-05T14:28:49.871Z,2
2023-05-05T14:29:48.381Z,2
2023-05-05T14:30:48.416Z,2
2023-05-05T14:31:48.469Z,2
2023-05-05T14:32:48.462Z,2
2023-05-05T14:33:48.435Z,2
2023-05-05T14:34:50.318Z,2
2023-05-05T14:35:48.422Z,2
2023-05-05T14:37:48.419Z,2
2023-05-05T14:38:48.456Z,2
2023-05-05T14:40:48.400Z,2
2023-05-05T14:41:48.419Z,2
2023-05-05T14:43:48.448Z,2
2023-05-05T14:44:48.397Z,2
2023-05-05T14:45:48.460Z,2
2023-05-05T14:46:49.769Z,2
2023-05-05T14:47:48.428Z,2
2023-05-05T14:48:48.436Z,3
2023-05-05T14:49:48.408Z,2
2023-05-05T14:51:48.415Z,2
2023-05-05T14:52:48.429Z,2
2023-05-05T14:53:48.406Z,2
2023-05-05T14:54:48.436Z,3
2023-05-05T14:55:48.395Z,2
2023-05-05T14:56:48.431Z,2
2023-05-05T14:57:48.434Z,2
2023-05-05T14:58:49.464Z,2
2023-05-05T14:59:48.387Z,2
2023-05-05T15:00:48.422Z,2
2023-05-05T15:01:48.469Z,2
2023-05-05T15:02:48.601Z,2
2023-05-05T15:03:48.593Z,2
2023-05-05T15:04:49.741Z,2
2023-05-05T15:05:48.429Z,3
2023-05-05T15:06:48.441Z,3
2023-05-05T15:07:48.434Z,2
2023-05-05T15:08:48.419Z,3
2023-05-05T15:09:48.404Z,2
2023-05-05T15:10:48.402Z,2
2023-05-05T15:11:48.426Z,2
2023-05-05T15:12:48.426Z,2
2023-05-05T15:13:48.420Z,2
2023-05-05T15:14:48.493Z,2
2023-05-05T15:15:48.499Z,2
2023-05-05T15:16:48.424Z,2
2023-05-05T15:17:48.479Z,2
2023-05-05T15:18:48.428Z,2
2023-05-05T15:19:48.408Z,2
2023-05-05T15:20:48.432Z,2
2023-05-05T15:22:49.652Z,2
2023-05-05T15:23:48.424Z,2
2023-05-05T15:24:48.431Z,2
2023-05-05T15:25:48.437Z,2
2023-05-05T15:27:48.402Z,2
2023-05-05T15:28:50.305Z,2
2023-05-05T15:29:48.418Z,2
2023-05-05T15:30:48.399Z,2
2023-05-05T15:31:48.425Z,2
2023-05-05T15:32:48.471Z,2
2023-05-05T15:33:48.506Z,2
2023-05-05T15:34:50.228Z,2
2023-05-05T15:35:48.458Z,2